Latest Weather Observations for PORTABLE QFRJ (North Tamborine)

IDQ60801

Issued at 9:52 pm EST Thursday 24 September 2020 (issued every 10 minutes, with the page automatically refreshed every 10 minutes)

About weather observations | Map of weather stations | Latest weather observations for QLD | Other Formats
Station Details ID: 250074 Name: NORTH TAMBORINE (QFRJ) Lat: -27.94 Lon: 153.19 Height: 527.0 m

Portable automatic weather stations (PAWS) are operated by other organisations, such as Fire and Emergency Services, and are included here by agreement. Portable stations may be deployed to a location for a short period and their location may be subject to change without notice. Wind observations from these stations are provided from heights of either three (3) or ten (10) metres above ground level (AGL).

Data from the previous 72 hours. | See also: Recent months for locations in Queensland
Date/Time
EST
Temp
°C
App
Temp
°C
Dew
Point
°C
Rel
Hum
%
Delta-T
°C
Wind Press
QNH
hPa
Press
MSL
hPa
Rain since
9am
mm
Dir  Spd
km/h
Gust
km/h
Spd
kts
Gust
kts
24/09:40pm 15.3 13.8 8.3 63 3.6 NE 6 6 3 3 - - 0.0
24/09:30pm 15.3 13.7 8.1 62 3.7 ENE 6 7 3 4 - - 0.0
24/09:20pm 15.1 13.5 8.1 63 3.6 NE 6 7 3 4 - - 0.0
24/09:10pm 15.1 13.5 8.0 62 3.7 NE 6 7 3 4 - - 0.0
24/09:00pm 15.5 13.9 7.9 60 3.9 ENE 6 7 3 4 - - 0.0
24/08:50pm 15.5 13.9 7.8 60 4.0 ENE 6 7 3 4 - - 0.0
24/08:40pm 15.5 14.3 7.9 60 3.9 ENE 4 7 2 4 - - 0.0
24/08:30pm 15.7 14.1 8.1 60 3.9 ENE 6 7 3 4 - - 0.0
24/08:20pm 15.8 14.2 7.9 59 4.1 E 6 7 3 4 - - 0.0
24/08:10pm 15.8 14.0 7.8 59 4.1 E 7 9 4 5 - - 0.0
24/08:00pm 15.9 14.1 7.8 58 4.2 ENE 7 11 4 6 - - 0.0
24/07:50pm 15.8 14.0 7.8 59 4.1 ENE 7 9 4 5 - - 0.0
24/07:40pm 15.7 13.5 7.8 59 4.1 ENE 9 11 5 6 - - 0.0
24/07:30pm 15.6 13.4 7.7 59 4.1 ENE 9 11 5 6 - - 0.0
24/07:20pm 15.6 13.6 7.3 57 4.2 ENE 7 11 4 6 - - 0.0
24/07:10pm 15.7 13.3 7.2 57 4.3 E 9 9 5 5 - - 0.0
24/07:00pm 15.7 13.3 7.1 56 4.4 E 9 11 5 6 - - 0.0
24/06:50pm 15.8 13.4 7.0 56 4.5 E 9 11 5 6 - - 0.0
24/06:40pm 15.8 13.4 6.9 55 4.5 E 9 11 5 6 - - 0.0
24/06:30pm 15.8 13.4 6.8 55 4.5 E 9 11 5 6 - - 0.0
24/06:20pm 15.9 13.1 6.8 54 4.6 E 11 13 6 7 - - 0.0
24/06:10pm 15.8 13.3 6.6 54 4.6 E 9 11 5 6 - - 0.0
24/06:00pm 15.9 13.4 6.7 54 4.6 E 9 11 5 6 - - 0.0
24/05:50pm 16.0 13.1 6.6 53 4.7 E 11 13 6 7 - - 0.0
24/05:40pm 16.2 13.3 6.6 53 4.8 E 11 13 6 7 - - 0.0
24/05:30pm 16.4 13.5 6.5 52 5.0 E 11 13 6 7 - - 0.0
24/05:20pm 16.7 13.8 6.5 51 5.2 E 11 13 6 7 - - 0.0
24/05:10pm 17.0 14.1 6.5 50 5.3 E 11 13 6 7 - - 0.0
24/05:00pm 17.2 13.9 6.5 49 5.4 E 13 17 7 9 - - 0.0
24/04:50pm 17.5 14.2 6.3 47 5.7 E 13 17 7 9 - - 0.0
24/04:40pm 17.7 14.0 6.3 47 5.8 E 15 17 8 9 - - 0.0
24/04:30pm 18.0 14.7 6.2 46 6.0 E 13 19 7 10 - - 0.0
24/04:20pm 18.1 14.4 6.4 46 6.0 E 15 19 8 10 - - 0.0
24/04:10pm 18.3 13.8 6.3 45 6.1 E 19 20 10 11 - - 0.0
24/04:00pm 18.6 14.5 6.4 45 6.2 E 17 19 9 10 - - 0.0
24/03:50pm 18.7 14.6 6.2 44 6.4 E 17 19 9 10 - - 0.0
24/03:40pm 19.1 16.2 6.4 43 6.5 E 11 19 6 10 - - 0.0
24/03:30pm 19.4 16.8 6.1 42 6.8 E 9 17 5 9 - - 0.0
24/03:20pm 19.4 16.8 5.9 41 6.9 E 9 13 5 7 - - 0.0
24/03:10pm 19.4 15.7 6.2 42 6.7 E 15 22 8 12 - - 0.0
24/03:00pm 19.6 15.4 5.6 40 7.1 E 17 19 9 10 - - 0.0
24/02:50pm 19.9 16.0 5.2 38 7.4 E 15 22 8 12 - - 0.0
24/02:40pm 20.0 16.5 5.5 38 7.3 E 13 15 7 8 - - 0.0
24/02:30pm 20.4 16.8 4.9 36 7.8 E 13 17 7 9 - - 0.0
24/02:20pm 21.5 18.5 5.8 36 8.1 E 11 17 6 9 - - 0.0
24/02:10pm 23.1 20.6 4.7 30 9.4 W 7 13 4 7 - - 0.0
24/02:00pm 23.0 17.8 -6.5 13 12.1 WNW 13 15 7 8 - - 0.0
24/01:50pm 23.0 18.4 -4.0 16 11.6 W 11 17 6 9 - - 0.0
24/01:40pm 23.4 20.2 -3.5 16 11.8 WSW 4 11 2 6 - - 0.0
24/01:30pm 22.4 17.6 -6.3 14 11.8 W 11 15 6 8 - - 0.0
24/01:20pm 22.4 16.9 -5.2 15 11.6 WNW 15 20 8 11 - - 0.0
24/01:10pm 22.3 17.8 -7.2 13 11.9 NNW 9 17 5 9 - - 0.0
24/01:00pm 22.1 18.2 -4.6 16 11.3 W 7 11 4 6 - - 0.0
24/12:50pm 21.9 17.3 -4.4 17 11.1 WNW 11 15 6 8 - - 0.0
24/12:40pm 21.8 17.2 -4.4 17 11.1 WSW 11 19 6 10 - - 0.0
24/12:30pm 21.6 17.0 -4.5 17 11.0 WSW 11 17 6 9 - - 0.0
24/12:20pm 21.0 16.1 -3.2 19 10.4 WSW 13 19 7 10 - - 0.0
24/12:10pm 21.2 16.9 -1.6 21 10.1 SW 11 17 6 9 - - 0.0
24/12:00pm 21.0 16.7 -1.6 22 10.0 W 11 15 6 8 - - 0.0
24/11:50am 20.8 16.6 -3.6 19 10.4 NW 9 15 5 8 - - 0.0
24/11:40am 20.7 16.0 -1.6 22 9.9 NW 13 17 7 9 - - 0.0
24/11:30am 20.9 16.8 -0.4 24 9.7 WSW 11 13 6 7 - - 0.0
24/11:20am 20.7 16.7 -2.3 21 10.0 W 9 11 5 6 - - 0.0
24/11:10am 20.3 15.9 -2.7 21 9.9 W 11 15 6 8 - - 0.0
24/11:00am 20.1 15.6 -3.5 20 10.0 WNW 11 15 6 8 - - 0.0
24/10:50am 20.1 16.5 -2.0 22 9.7 W 7 11 4 6 - - 0.0
24/10:40am 19.7 15.0 -2.1 23 9.5 WNW 13 17 7 9 - - 0.0
24/10:30am 19.6 15.3 -1.5 24 9.3 WNW 11 15 6 8 - - 0.0
24/10:20am 19.5 16.0 -1.4 24 9.2 W 7 13 4 7 - - 0.0
24/10:00am 18.9 14.6 -1.6 25 8.9 WSW 11 15 6 8 - - 0.0
24/09:50am 18.8 14.4 -2.1 24 9.0 W 11 17 6 9 - - 0.0
24/09:40am 18.3 13.7 -0.8 27 8.4 WSW 13 15 7 8 - - 0.0
24/09:30am 18.1 14.9 0.9 31 7.8 W 7 9 4 5 - - 0.0
24/09:20am 17.9 14.8 1.5 33 7.6 WSW 7 20 4 11 - - 0.0
24/09:10am 18.0 14.1 1.4 32 7.6 WSW 11 17 6 9 - - 0.0
24/09:00am 17.8 13.9 1.3 33 7.6 WSW 11 15 6 8 - - 0.0
24/08:50am 17.8 13.5 1.2 32 7.6 W 13 19 7 10 - - 0.0
24/08:40am 17.6 13.3 0.8 32 7.6 WSW 13 19 7 10 - - 0.0
24/08:30am 17.7 13.9 1.7 34 7.4 WSW 11 15 6 8 - - 0.0
24/08:20am 17.5 13.6 1.1 33 7.5 WSW 11 15 6 8 - - 0.0
24/08:10am 17.1 13.7 2.1 36 6.9 WSW 9 13 5 7 - - 0.0
24/08:00am 17.1 14.1 1.7 35 7.1 W 7 9 4 5 - - 0.0
24/07:50am 17.1 14.2 1.5 35 7.1 W 6 9 3 5 - - 0.0
24/07:40am 17.1 14.0 1.1 34 7.3 WSW 7 13 4 7 - - 0.0
24/07:30am 16.9 14.1 3.0 39 6.5 WSW 7 9 4 5 - - 0.0
24/07:20am 16.8 13.7 1.2 35 7.1 WSW 7 9 4 5 - - 0.0
24/07:10am 16.6 13.5 1.1 35 7.0 W 7 11 4 6 - - 0.0
24/07:00am 16.4 13.5 1.5 36 6.8 WSW 6 7 3 4 - - 0.0
24/06:50am 16.4 13.4 1.7 37 6.7 WSW 7 11 4 6 - - 0.0
24/06:40am 16.3 13.3 1.7 37 6.7 WSW 7 11 4 6 - - 0.0
24/06:30am 16.3 13.2 1.3 36 6.8 W 7 9 4 5 - - 0.0
24/06:20am 16.1 13.0 1.6 37 6.6 W 7 9 4 5 - - 0.0
24/06:10am 16.0 13.1 1.2 36 6.7 W 6 7 3 4 - - 0.0
24/06:00am 16.3 13.2 1.1 35 6.9 W 7 9 4 5 - - 0.0
24/05:50am 16.3 13.2 1.3 36 6.8 W 7 9 4 5 - - 0.0
24/05:40am 16.5 13.3 0.7 34 7.1 WSW 7 11 4 6 - - 0.0
24/05:30am 16.8 13.3 1.0 34 7.1 W 9 13 5 7 - - 0.0
24/05:20am 16.9 13.3 0.9 34 7.2 WSW 9 13 5 7 - - 0.0
24/05:10am 17.0 13.4 0.7 33 7.3 WSW 9 15 5 8 - - 0.0
24/05:00am 17.1 13.2 1.0 33 7.3 SW 11 15 6 8 - - 0.0
24/04:50am 17.0 13.4 0.9 33 7.3 SW 9 13 5 7 - - 0.0
24/04:40am 17.3 13.3 0.8 33 7.5 WSW 11 17 6 9 - - 0.0
24/04:30am 17.3 13.0 0.7 32 7.5 SW 13 17 7 9 - - 0.0
24/04:20am 17.3 13.3 0.8 33 7.5 SW 11 13 6 7 - - 0.0
24/04:10am 17.2 13.2 0.4 32 7.5 SW 11 15 6 8 - - 0.0
24/04:00am 16.9 13.3 0.6 33 7.3 SW 9 13 5 7 - - 0.0
24/03:50am 16.7 13.6 1.2 35 7.0 WSW 7 9 4 5 - - 0.0
24/03:40am 17.0 13.4 0.9 33 7.3 W 9 11 5 6 - - 0.0
24/03:30am 17.1 13.2 0.9 33 7.3 W 11 13 6 7 - - 0.0
24/03:20am 17.3 13.3 0.7 32 7.5 W 11 15 6 8 - - 0.0
24/03:10am 17.4 13.4 0.7 32 7.5 WSW 11 15 6 8 - - 0.0
24/03:00am 17.5 13.5 0.5 31 7.6 W 11 13 6 7 - - 0.0
24/02:50am 17.5 13.9 0.8 32 7.6 WSW 9 11 5 6 - - 0.0
24/02:40am 17.7 13.7 0.3 31 7.8 WSW 11 15 6 8 - - 0.0
24/02:30am 17.8 13.4 0.5 31 7.8 WSW 13 15 7 8 - - 0.0
24/02:20am 17.9 13.6 0.9 32 7.7 WSW 13 17 7 9 - - 0.0
24/02:10am 18.0 13.3 0.9 31 7.8 WSW 15 19 8 10 - - 0.0
24/02:00am 18.0 12.9 1.0 32 7.8 WSW 17 24 9 13 - - 0.0
24/01:50am 17.9 13.6 1.2 32 7.6 WSW 13 17 7 9 - - 0.0
24/01:40am 18.1 13.8 1.2 32 7.7 WSW 13 15 7 8 - - 0.0
24/01:30am 18.2 13.9 0.8 31 7.9 W 13 17 7 9 - - 0.0
24/01:20am 18.2 14.3 1.4 32 7.7 W 11 13 6 7 - - 0.0
24/01:10am 18.3 14.4 1.3 32 7.8 W 11 13 6 7 - - 0.0
24/01:00am 18.4 14.9 1.1 31 7.9 WSW 9 13 5 7 - - 0.0
24/12:50am 18.5 15.1 1.6 32 7.8 WSW 9 13 5 7 - - 0.0
24/12:40am 18.6 15.3 2.3 33 7.7 WSW 9 13 5 7 - - 0.0
24/12:30am 18.6 15.3 2.7 34 7.5 WSW 9 13 5 7 - - 0.0
24/12:20am 18.7 15.7 3.9 37 7.2 W 9 13 5 7 - - 0.0
24/12:10am 18.7 15.9 5.0 40 6.8 WSW 9 13 5 7 - - 0.0
24/12:00am 18.7 16.1 6.2 44 6.4 WSW 9 13 5 7 - - 0.0
 
Date/Time
EST
Temp
°C
App
Temp
°C
Dew
Point
°C
Rel
Hum
%
Delta-T
°C
Wind Press
QNH
hPa
Press
MSL
hPa
Rain since
9am
mm
Dir  Spd
km/h
Gust
km/h
Spd
kts
Gust
kts
23/11:50pm 18.8 15.8 6.0 43 6.5 WSW 11 13 6 7 - - 0.0
23/11:40pm 18.9 16.0 6.4 44 6.4 WSW 11 13 6 7 - - 0.0
23/11:30pm 18.9 15.9 6.2 43 6.5 WSW 11 13 6 7 - - 0.0
23/11:20pm 18.9 16.3 7.7 48 5.9 WSW 11 13 6 7 - - 0.0
23/11:10pm 18.8 16.8 8.6 51 5.4 W 9 13 5 7 - - 0.0
23/11:00pm 18.8 17.4 9.5 54 5.0 W 7 9 4 5 - - 0.0
23/10:50pm 19.0 17.2 9.6 54 5.1 W 9 11 5 6 - - 0.0
23/10:40pm 19.3 16.9 8.5 49 5.8 W 11 13 6 7 - - 0.0
23/10:30pm 19.3 17.6 8.5 49 5.8 W 7 11 4 6 - - 0.0
23/10:20pm 19.5 17.8 8.2 48 6.0 W 7 11 4 6 - - 0.0
23/10:10pm 19.7 17.6 8.2 47 6.1 W 9 11 5 6 - - 0.0
23/10:00pm 19.8 17.7 8.4 47 6.1 W 9 13 5 7 - - 0.0
23/09:50pm 20.0 17.6 8.7 48 6.1 W 11 17 6 9 - - 0.0
23/09:40pm 20.1 17.3 8.4 47 6.3 W 13 19 7 10 - - 0.0
23/09:30pm 20.2 17.8 10.1 52 5.6 W 13 15 7 8 - - 0.0
23/09:20pm 20.4 17.9 9.6 50 5.9 W 13 15 7 8 - - 0.0
23/09:10pm 20.5 18.5 8.7 46 6.4 W 9 13 5 7 - - 0.0
23/09:00pm 20.4 17.9 8.0 44 6.6 WNW 11 15 6 8 - - 0.0
23/08:50pm 20.3 17.6 7.4 43 6.8 WNW 11 15 6 8 - - 0.0
23/08:40pm 20.1 18.4 8.3 46 6.3 W 7 11 4 6 - - 0.0
23/08:30pm 19.4 17.4 8.6 49 5.8 WNW 9 11 5 6 - - 0.0
23/08:20pm 18.3 17.1 10.2 59 4.4 WNW 7 11 4 6 - - 0.0
23/08:10pm 18.2 18.4 14.1 77 2.4 NW 6 7 3 4 - - 0.0
23/08:00pm 18.3 18.9 14.2 77 2.4 NW 4 6 2 3 - - 0.0
23/07:50pm 18.4 18.6 14.2 76 2.5 NNW 6 6 3 3 - - 0.0
23/07:40pm 18.7 18.8 13.9 73 2.8 NW 6 7 3 4 - - 0.0
23/07:30pm 18.7 19.1 13.8 73 2.9 NW 4 9 2 5 - - 0.0
23/07:20pm 18.6 18.4 13.6 72 2.9 NNW 7 11 4 6 - - 0.0
23/07:10pm 17.9 18.7 13.8 77 2.4 NNW 2 4 1 2 - - 0.0
23/07:00pm 17.8 18.6 13.7 77 2.4 NNW 2 6 1 3 - - 0.0
23/06:50pm 18.0 18.7 13.4 74 2.7 NE 2 6 1 3 - - 0.0
23/06:40pm 18.2 18.4 13.1 72 2.9 SE 4 6 2 3 - - 0.0
23/06:30pm 18.5 18.7 13.1 71 3.1 ENE 4 6 2 3 - - 0.0
23/06:20pm 18.6 18.7 12.6 68 3.4 ENE 4 6 2 3 - - 0.0
23/06:10pm 18.4 18.5 12.7 69 3.3 NE 4 4 2 2 - - 0.0
23/06:00pm 18.7 18.7 12.4 67 3.6 NE 4 4 2 2 - - 0.0
23/05:50pm 19.0 19.0 12.5 66 3.7 ENE 4 7 2 4 - - 0.0
23/05:40pm 19.3 19.1 13.0 67 3.6 E 6 7 3 4 - - 0.0
23/05:30pm 19.6 19.8 13.1 66 3.8 ENE 4 6 2 3 - - 0.0
23/05:20pm 19.7 19.9 13.1 65 3.8 E 4 4 2 2 - - 0.0
23/05:10pm 19.8 19.6 13.0 65 3.9 E 6 7 3 4 - - 0.0
23/05:00pm 19.9 19.4 12.8 63 4.1 E 7 9 4 5 - - 0.0
23/04:50pm 20.3 19.8 12.6 61 4.4 E 7 9 4 5 - - 0.0
23/04:40pm 20.7 20.4 12.6 59 4.7 ESE 6 9 3 5 - - 0.0
23/04:30pm 20.8 20.2 12.3 58 4.9 E 7 9 4 5 - - 0.0
23/04:20pm 21.0 20.4 12.3 57 5.0 E 7 9 4 5 - - 0.0
23/04:10pm 21.5 20.4 12.1 55 5.4 E 9 13 5 7 - - 0.0
23/04:00pm 21.8 21.0 11.8 53 5.7 E 7 11 4 6 - - 0.0
23/03:50pm 22.1 20.8 11.3 50 6.2 E 9 15 5 8 - - 0.0
23/03:40pm 22.4 21.6 11.1 48 6.4 E 6 13 3 7 - - 0.0
23/03:30pm 22.4 21.7 11.4 49 6.3 E 6 11 3 6 - - 0.0
23/03:20pm 22.8 21.9 11.3 48 6.6 E 7 11 4 6 - - 0.0
23/03:10pm 24.2 23.3 11.5 45 7.3 - 7 9 4 5 - - 0.0
23/03:00pm 25.4 23.1 5.9 28 10.3 WNW 7 11 4 6 - - 0.0
23/02:50pm 25.7 22.7 5.9 28 10.5 W 11 17 6 9 - - 0.0
23/02:40pm 25.5 23.4 8.1 33 9.5 WNW 9 13 5 7 - - 0.0
23/02:30pm 25.1 22.9 6.2 29 10.0 NNW 7 15 4 8 - - 0.0
23/02:20pm 24.9 22.3 7.8 33 9.3 NW 11 13 6 7 - - 0.0
23/02:10pm 24.8 23.2 8.9 36 8.8 NNW 7 11 4 6 - - 0.0
23/02:00pm 24.8 21.5 6.3 30 9.8 WNW 13 19 7 10 - - 0.0
23/01:50pm 24.9 21.6 6.5 30 9.8 WNW 13 19 7 10 - - 0.0
23/01:40pm 24.5 22.5 8.8 36 8.7 WNW 9 11 5 6 - - 0.0
23/01:30pm 23.9 21.3 9.2 39 8.1 NW 13 19 7 10 - - 0.0
23/01:20pm 24.2 22.2 8.7 37 8.5 WNW 9 13 5 7 - - 0.0
23/01:10pm 24.3 21.4 6.4 31 9.5 W 11 13 6 7 - - 0.0
23/01:00pm 24.0 20.9 7.3 34 9.0 WNW 13 19 7 10 - - 0.0
23/12:50pm 23.8 21.0 8.4 37 8.4 WNW 13 19 7 10 - - 0.0
23/12:40pm 23.5 20.8 8.8 39 8.1 WNW 13 15 7 8 - - 0.0
23/12:30pm 22.6 20.5 9.6 43 7.2 W 11 15 6 8 - - 0.0
23/12:20pm 22.4 20.5 9.1 42 7.3 W 9 15 5 8 - - 0.0
23/12:10pm 22.1 19.1 9.3 44 7.0 W 15 19 8 10 - - 0.0
23/12:00pm 22.5 19.1 9.2 42 7.3 W 17 20 9 11 - - 0.0
23/11:50am 22.5 18.9 8.5 40 7.6 W 17 20 9 11 - - 0.0
23/11:40am 22.6 19.6 7.9 39 7.9 WNW 13 19 7 10 - - 0.0
23/11:30am 22.2 18.5 6.4 36 8.2 WNW 15 20 8 11 - - 0.0
23/11:20am 22.2 19.3 6.3 35 8.3 W 11 13 6 7 - - 0.0
23/11:10am 21.5 18.9 6.3 37 7.9 W 9 11 5 6 - - 0.0
23/11:00am 21.0 18.5 6.7 39 7.5 W 9 15 5 8 - - 0.0
23/10:50am 20.7 18.3 7.1 41 7.1 W 9 11 5 6 - - 0.0
23/10:40am 20.3 18.1 8.0 45 6.5 WNW 9 9 5 5 - - 0.0
23/10:30am 20.0 18.3 8.2 46 6.3 W 7 9 4 5 - - 0.0
23/10:20am 19.9 17.7 7.7 45 6.4 W 9 13 5 7 - - 0.0
23/10:00am 19.7 16.9 7.1 44 6.6 W 11 13 6 7 - - 0.0
23/09:50am 19.4 16.2 6.8 44 6.5 W 13 15 7 8 - - 0.0
23/09:40am 19.3 16.4 6.3 42 6.7 W 11 15 6 8 - - 0.0
23/09:30am 19.4 16.5 6.6 43 6.6 W 11 15 6 8 - - 0.0
23/09:20am 19.3 16.9 7.0 44 6.4 W 9 13 5 7 - - 0.0
23/09:10am 19.2 16.3 6.5 43 6.5 W 11 13 6 7 - - 0.0
23/09:00am 19.2 16.3 6.7 44 6.4 W 11 15 6 8 - - 0.0
23/08:50am 19.1 16.3 6.9 45 6.3 W 11 15 6 8 - - 0.0
23/08:40am 19.0 16.6 7.2 46 6.1 W 9 11 5 6 - - 0.0
23/08:30am 19.1 16.4 7.5 47 6.1 W 11 17 6 9 - - 0.0
23/08:20am 19.2 15.6 6.8 44 6.4 W 15 20 8 11 - - 0.0
23/08:10am 19.1 15.9 6.8 44 6.3 W 13 17 7 9 - - 0.0
23/08:00am 19.1 16.0 7.2 46 6.2 W 13 15 7 8 - - 0.0
23/07:50am 19.1 15.6 7.4 46 6.1 W 15 19 8 10 - - 0.0
23/07:40am 19.1 15.9 6.7 44 6.4 W 13 17 7 9 - - 0.0
23/07:30am 19.1 16.2 6.6 44 6.4 W 11 17 6 9 - - 0.0
23/07:20am 19.2 15.6 6.9 44 6.4 W 15 15 8 8 - - 0.0
23/07:10am 19.2 15.8 7.6 47 6.1 W 15 17 8 9 - - 0.0
23/07:00am 19.2 16.1 8.7 50 5.6 W 15 17 8 9 - - 0.0
23/06:50am 19.0 16.0 9.1 52 5.3 W 15 19 8 10 - - 0.0
23/06:40am 18.8 16.3 9.6 55 5.0 W 13 17 7 9 - - 0.0
23/06:30am 18.7 16.3 11.4 62 4.1 W 15 17 8 9 - - 0.0
23/06:20am 18.6 16.5 11.3 62 4.1 W 13 15 7 8 - - 0.0
23/06:10am 18.5 16.9 12.9 70 3.2 W 13 17 7 9 - - 0.0
23/06:00am 18.6 16.8 13.3 71 3.1 W 15 17 8 9 - - 0.0
23/05:50am 18.5 17.0 13.1 71 3.1 W 13 17 7 9 - - 0.0
23/05:40am 18.4 17.0 13.5 73 2.9 W 13 15 7 8 - - 0.0
23/05:30am 18.4 17.0 14.5 78 2.3 W 15 19 8 10 - - 0.0
23/05:20am 18.4 16.7 14.8 79 2.1 W 17 19 9 10 - - 0.0
23/05:10am 18.1 17.1 15.6 85 1.5 W 15 17 8 9 - - 0.0
23/05:00am 18.1 17.8 17.3 95 0.5 W 15 17 8 9 - - 0.0
23/04:50am 18.4 18.3 17.8 96 0.4 W 15 20 8 11 - - 0.0
23/04:40am 18.3 18.1 17.6 96 0.4 W 15 17 8 9 - - 0.0
23/04:30am 18.2 18.5 17.8 97 0.3 W 13 17 7 9 - - 0.0
23/04:20am 18.4 19.2 18.1 98 0.2 W 11 17 6 9 - - 0.0
23/04:10am 18.5 18.9 18.2 98 0.2 W 13 15 7 8 - - 0.0
23/04:00am 18.6 19.0 18.2 97 0.3 W 13 15 7 8 - - 0.0
23/03:50am 18.8 18.9 18.3 97 0.3 W 15 17 8 9 - - 0.0
23/03:40am 19.0 19.5 18.3 96 0.4 W 13 15 7 8 - - 0.0
23/03:30am 19.1 19.1 18.2 94 0.6 W 15 17 8 9 - - 0.0
23/03:20am 19.3 19.3 18.0 92 0.8 W 15 17 8 9 - - 0.0
23/03:10am 19.4 19.4 18.0 92 0.9 WNW 15 19 8 10 - - 0.0
23/03:00am 19.5 19.4 17.9 90 1.0 WNW 15 17 8 9 - - 0.0
23/02:50am 19.6 19.6 18.0 90 1.0 WNW 15 17 8 9 - - 0.0
23/02:40am 19.8 19.7 17.8 88 1.3 WNW 15 17 8 9 - - 0.0
23/02:30am 19.6 19.9 17.9 90 1.1 WNW 13 15 7 8 - - 0.0
23/02:20am 20.1 20.0 17.9 87 1.4 WNW 15 19 8 10 - - 0.0
23/02:10am 20.4 20.1 17.4 83 1.9 WNW 15 17 8 9 - - 0.0
23/02:00am 20.6 20.6 17.3 81 2.1 WNW 13 17 7 9 - - 0.0
23/01:50am 20.7 20.7 17.1 80 2.2 WNW 13 15 7 8 - - 0.0
23/01:40am 20.6 20.9 17.1 80 2.2 WNW 11 11 6 6 - - 0.0
23/01:30am 20.7 21.1 17.3 81 2.1 NW 11 13 6 7 - - 0.0
23/01:20am 20.9 21.2 17.0 78 2.4 NW 11 13 6 7 - - 0.0
23/01:10am 21.0 21.3 17.1 78 2.4 WNW 11 15 6 8 - - 0.0
23/01:00am 21.2 21.1 16.9 76 2.7 WNW 13 15 7 8 - - 0.0
23/12:50am 21.1 21.3 16.8 76 2.7 WNW 11 13 6 7 - - 0.0
23/12:40am 21.1 21.4 16.9 77 2.6 WNW 11 13 6 7 - - 0.0
23/12:30am 21.1 21.3 16.8 76 2.7 WNW 11 11 6 6 - - 0.0
23/12:20am 21.1 21.7 16.7 76 2.7 WNW 9 11 5 6 - - 0.0
23/12:10am 20.8 21.4 16.8 78 2.5 WNW 9 11 5 6 - - 0.0
23/12:00am 20.5 21.6 17.0 80 2.2 NW 7 9 4 5 - - 0.0
 
Date/Time
EST
Temp
°C
App
Temp
°C
Dew
Point
°C
Rel
Hum
%
Delta-T
°C
Wind Press
QNH
hPa
Press
MSL
hPa
Rain since
9am
mm
Dir  Spd
km/h
Gust
km/h
Spd
kts
Gust
kts
22/11:50pm 20.3 21.4 17.2 82 1.9 WNW 7 7 4 4 - - 0.0
22/11:40pm 20.2 21.0 17.4 84 1.8 NW 9 9 5 5 - - 0.0
22/11:30pm 20.2 21.1 17.5 84 1.7 NW 9 11 5 6 - - 0.0
22/11:20pm 20.0 21.4 17.8 87 1.4 NW 7 9 4 5 - - 0.0
22/11:10pm 19.8 21.3 18.0 89 1.1 NW 7 9 4 5 - - 0.0
22/11:00pm 19.8 20.9 18.1 90 1.1 NW 9 11 5 6 - - 0.0
22/10:50pm 19.7 20.9 18.2 91 0.9 NW 9 11 5 6 - - 0.0
22/10:40pm 19.6 20.9 18.4 93 0.8 NW 9 11 5 6 - - 0.0
22/10:30pm 19.5 20.8 18.4 93 0.7 NW 9 11 5 6 - - 0.0
22/10:20pm 19.4 21.1 18.5 94 0.6 NW 7 9 4 5 - - 0.0
22/10:10pm 19.4 21.3 18.5 94 0.6 NNW 6 7 3 4 - - 0.0
22/10:00pm 19.5 21.2 18.5 94 0.6 NW 7 9 4 5 - - 0.0
22/09:50pm 19.5 21.2 18.5 94 0.6 NNW 7 9 4 5 - - 0.0
22/09:40pm 19.6 20.9 18.4 93 0.8 NNW 9 11 5 6 - - 0.0
22/09:30pm 19.6 20.5 18.4 93 0.8 WNW 11 13 6 7 - - 0.0
22/09:20pm 19.7 21.0 18.4 92 0.8 NW 9 13 5 7 - - 0.0
22/09:10pm 19.7 21.0 18.4 92 0.8 NW 9 11 5 6 - - 0.0
22/09:00pm 19.7 21.0 18.4 92 0.8 NW 9 11 5 6 - - 0.0
22/08:50pm 19.7 20.9 18.3 92 0.9 NNW 9 11 5 6 - - 0.0
22/08:40pm 19.7 20.9 18.3 92 0.9 NNW 9 11 5 6 - - 0.0
22/08:30pm 19.7 20.5 18.2 91 0.9 NNW 11 13 6 7 - - 0.0
22/08:20pm 19.7 20.5 18.2 91 0.9 NNW 11 15 6 8 - - 0.0
22/08:10pm 19.7 20.5 18.2 91 0.9 NNW 11 15 6 8 - - 0.0
22/08:00pm 19.6 20.4 18.1 91 0.9 NNW 11 13 6 7 - - 0.0
22/07:50pm 19.6 20.7 18.1 91 0.9 NNW 9 15 5 8 - - 0.0
22/07:40pm 19.6 20.3 18.0 90 1.0 NNW 11 13 6 7 - - 0.0
22/07:30pm 19.7 20.0 18.0 90 1.1 NNW 13 17 7 9 - - 0.0
22/07:20pm 19.8 20.1 17.9 89 1.2 NNW 13 15 7 8 - - 0.0
22/07:10pm 19.9 20.2 17.8 88 1.3 NNW 13 15 7 8 - - 0.0
22/07:00pm 19.9 20.2 17.8 88 1.3 NNW 13 17 7 9 - - 0.0
22/06:50pm 19.9 19.8 17.8 88 1.3 NNW 15 20 8 11 - - 0.0
22/06:40pm 19.7 19.2 17.9 89 1.1 NNW 17 19 9 10 - - 0.0
22/06:30pm 19.6 19.5 17.9 90 1.1 NNW 15 17 8 9 - - 0.0
22/06:20pm 19.6 21.1 18.0 90 1.0 N 7 9 4 5 - - 0.0
22/06:10pm 19.7 21.3 17.9 89 1.1 N 6 7 3 4 - - 0.0
22/06:00pm 19.9 21.3 17.9 88 1.3 N 7 9 4 5 - - 0.0
22/05:50pm 20.0 21.6 17.9 88 1.3 N 6 9 3 5 - - 0.0
22/05:40pm 20.1 21.7 17.9 87 1.4 N 6 9 3 5 - - 0.0
22/05:30pm 20.3 21.9 17.8 85 1.6 N 6 9 3 5 - - 0.0
22/05:20pm 20.6 21.6 17.8 84 1.8 N 9 11 5 6 - - 0.0
22/05:10pm 21.1 22.2 17.9 82 2.0 N 9 15 5 8 - - 0.0
22/05:00pm 21.6 23.2 17.9 79 2.3 N 6 11 3 6 - - 0.0
22/04:50pm 21.9 23.5 17.8 77 2.6 N 6 9 3 5 - - 0.0
22/04:40pm 22.1 23.7 17.8 76 2.7 N 6 9 3 5 - - 0.0
22/04:30pm 22.2 23.8 17.8 76 2.8 N 6 7 3 4 - - 0.0
22/04:20pm 22.1 23.5 17.8 76 2.7 NNE 7 9 4 5 - - 0.0
22/04:10pm 22.3 23.4 17.9 76 2.8 N 9 13 5 7 - - 0.0
22/04:00pm 22.8 24.4 17.8 73 3.2 NNE 6 9 3 5 - - 0.0
22/03:50pm 22.3 23.8 17.7 75 2.9 NNE 6 9 3 5 - - 0.0
22/03:40pm 22.0 23.5 17.7 76 2.7 NNE 6 9 3 5 - - 0.0
22/03:30pm 21.9 23.5 17.8 77 2.6 N 6 9 3 5 - - 0.0
22/03:20pm 22.0 23.6 17.9 77 2.6 NNE 6 9 3 5 - - 0.0
22/03:10pm 22.2 23.6 17.8 76 2.8 NNE 7 9 4 5 - - 0.0
22/03:00pm 22.2 23.6 17.9 76 2.7 N 7 9 4 5 - - 0.0
22/02:50pm 22.2 23.8 17.8 76 2.8 N 6 9 3 5 - - 0.0
22/02:40pm 21.8 23.5 18.1 79 2.4 N 6 7 3 4 - - 0.0
22/02:30pm 21.8 23.0 18.2 80 2.3 N 9 13 5 7 - - 0.0
22/02:20pm 21.9 23.6 18.5 81 2.2 N 7 9 4 5 - - 0.0
22/02:10pm 22.0 23.6 18.2 79 2.4 N 7 13 4 7 - - 0.0
22/02:00pm 21.8 23.4 18.2 80 2.3 N 7 11 4 6 - - 0.0
22/01:50pm 21.7 23.0 18.4 81 2.1 N 9 11 5 6 - - 0.0
22/01:40pm 22.1 23.0 18.4 79 2.4 N 11 17 6 9 - - 0.0
22/01:30pm 22.7 23.9 18.2 76 2.9 NNW 9 15 5 8 - - 0.0
22/01:20pm 22.8 23.5 17.9 74 3.1 NW 11 15 6 8 - - 0.0
22/01:10pm 23.0 23.5 17.5 71 3.5 NNW 11 15 6 8 - - 0.0
22/01:00pm 23.3 23.6 17.1 68 3.9 NNW 11 15 6 8 - - 0.0
22/12:50pm 23.5 23.9 17.2 67 4.0 NW 11 15 6 8 - - 0.0
22/12:40pm 23.7 23.9 16.8 65 4.3 NW 11 17 6 9 - - 0.0
22/12:30pm 23.5 22.5 16.7 65 4.3 NW 17 19 9 10 - - 0.0
22/12:20pm 23.4 22.8 16.6 65 4.3 NNW 15 17 8 9 - - 0.0
22/12:10pm 23.3 22.4 16.9 67 4.0 NW 17 20 9 11 - - 0.0
22/12:00pm 23.0 21.7 16.8 68 3.9 NW 19 22 10 12 - - 0.0
22/11:50am 23.6 22.6 16.7 65 4.3 NW 17 20 9 11 - - 0.0
22/11:40am 23.2 23.2 17.3 69 3.7 NW 13 19 7 10 - - 0.0
22/11:30am 22.5 21.6 16.9 70 3.5 WNW 17 24 9 13 - - 0.0
22/11:20am 22.6 21.5 17.2 71 3.4 NW 19 24 10 13 - - 0.0
22/11:10am 22.2 21.3 16.8 71 3.4 NW 17 20 9 11 - - 0.0
22/11:00am 21.9 21.4 16.9 73 3.1 NW 15 19 8 10 - - 0.0
22/10:50am 21.2 20.7 16.8 76 2.7 NW 15 19 8 10 - - 0.0
22/10:40am 21.1 20.6 17.0 77 2.6 NW 15 20 8 11 - - 0.0
22/10:30am 20.9 20.1 17.1 79 2.4 NW 17 20 9 11 - - 0.0
22/10:20am 20.7 20.2 16.9 79 2.4 NW 15 19 8 10 - - 0.0
22/10:00am 20.5 20.3 16.8 79 2.3 NW 13 19 7 10 - - 0.0
22/09:50am 20.3 19.3 16.7 80 2.2 WNW 17 22 9 12 - - 0.0
22/09:40am 20.4 20.2 16.6 79 2.4 NW 13 19 7 10 - - 0.0
22/09:30am 20.3 20.6 17.1 82 2.0 NW 11 13 6 7 - - 0.0
22/09:20am 20.1 21.1 16.8 81 2.0 N 7 15 4 8 - - 0.0
22/09:10am 19.6 20.3 17.0 85 1.6 NW 9 13 5 7 - - 0.0
22/09:00am 19.2 19.6 17.2 88 1.2 NW 11 15 6 8 - - 0.0
22/08:50am 19.3 19.4 17.5 89 1.1 NW 13 19 7 10 - - 0.0
22/08:40am 18.8 18.8 17.3 91 0.9 NW 13 15 7 8 - - 0.0
22/08:30am 18.4 18.9 17.4 94 0.6 NW 11 17 6 9 - - 0.0
22/08:20am 18.3 19.4 17.9 97 0.3 N 9 15 5 8 - - 0.0
22/08:10am 18.1 19.2 18.0 99 0.1 NNW 9 13 5 7 - - 0.0
22/08:00am 17.8 18.4 17.8 100 0.0 NNW 11 17 6 9 - - 0.0
22/07:50am 17.7 17.9 17.7 100 0.0 NNW 13 15 7 8 - - 0.0
22/07:40am 17.7 17.5 17.7 100 0.0 NW 15 20 8 11 - - 0.0
22/07:30am 17.6 17.4 17.6 100 0.0 NNW 15 19 8 10 - - 0.0
22/07:20am 17.6 17.0 17.6 100 0.0 NW 17 22 9 12 - - 0.0
22/07:10am 17.6 17.0 17.6 100 0.0 NNW 17 22 9 12 - - 0.0
22/07:00am 17.6 17.4 17.6 100 0.0 NNW 15 26 8 14 - - 0.0
22/06:50am 17.5 16.9 17.5 100 0.0 NW 17 22 9 12 - - 0.0
22/06:40am 17.5 16.9 17.5 100 0.0 NW 17 20 9 11 - - 0.0
22/06:30am 17.5 16.9 17.5 100 0.0 NW 17 24 9 13 - - 0.0
22/06:20am 17.4 17.5 17.4 100 0.0 NNW 13 15 7 8 - - 0.0
22/06:10am 17.2 17.6 17.2 100 0.0 NW 11 17 6 9 - - 0.0
22/06:00am 17.2 18.9 17.2 100 0.0 N 4 7 2 4 - - 0.0
22/05:50am 17.1 18.2 17.1 100 0.0 N 7 11 4 6 - - 0.0
22/05:40am 17.1 18.4 17.1 100 0.0 NNE 6 9 3 5 - - 0.0
22/05:30am 17.1 18.2 17.1 100 0.0 NNE 7 11 4 6 - - 0.0
22/05:20am 17.1 18.4 17.1 100 0.0 N 6 9 3 5 - - 0.0
22/05:10am 17.1 18.4 17.1 100 0.0 N 6 11 3 6 - - 0.0
22/05:00am 17.1 18.4 17.1 100 0.0 N 6 11 3 6 - - 0.0
22/04:50am 17.1 17.8 17.1 100 0.0 N 9 17 5 9 - - 0.0
22/04:40am 17.1 17.4 17.1 100 0.0 N 11 15 6 8 - - 0.0
22/04:30am 17.1 16.7 17.1 100 0.0 NNW 15 19 8 10 - - 0.0
22/04:20am 17.1 16.7 17.1 100 0.0 N 15 20 8 11 - - 0.0
22/04:10am 17.2 15.9 17.2 100 0.0 NNW 20 24 11 13 - - 0.0
22/04:00am 17.2 15.9 17.2 100 0.0 NNW 20 24 11 13 - - 0.0
22/03:50am 17.2 15.9 17.2 100 0.0 NNW 20 24 11 13 - - 0.0
22/03:40am 17.2 15.9 17.2 100 0.0 NNW 20 22 11 12 - - 0.0
22/03:30am 17.3 16.2 17.3 100 0.0 NNW 19 24 10 13 - - 0.0
22/03:20am 17.3 16.2 17.3 100 0.0 NNW 19 26 10 14 - - 0.0
22/03:10am 17.4 16.3 17.4 100 0.0 NW 19 20 10 11 - - 0.0
22/03:00am 17.4 16.3 17.4 100 0.0 NW 19 22 10 12 - - 0.0
22/02:50am 17.4 16.2 17.4 100 0.0 NW 20 22 11 12 - - 0.0
22/02:40am 17.5 16.5 17.5 100 0.0 NW 19 22 10 12 - - 0.0
22/02:30am 17.5 16.3 17.5 100 0.0 NW 20 22 11 12 - - 0.0
22/02:20am 17.6 16.6 17.6 100 0.0 NNW 19 22 10 12 - - 0.0
22/02:10am 17.6 17.4 17.6 100 0.0 NW 15 19 8 10 - - 0.0
22/02:00am 17.6 17.4 17.6 100 0.0 NW 15 19 8 10 - - 0.0
22/01:50am 17.6 17.8 17.6 100 0.0 NW 13 19 7 10 - - 0.0
22/01:40am 17.7 17.9 17.7 100 0.0 NNW 13 17 7 9 - - 0.0
22/01:30am 17.7 18.3 17.7 100 0.0 NNW 11 13 6 7 - - 0.0
22/01:20am 17.8 18.1 17.8 100 0.0 NNW 13 19 7 10 - - 0.0
22/01:10am 17.8 17.7 17.8 100 0.0 NW 15 19 8 10 - - 0.0
22/01:00am 17.9 18.2 17.9 100 0.0 NW 13 17 7 9 - - 0.0
22/12:50am 18.0 18.3 17.9 99 0.1 NW 13 17 7 9 - - 0.0
22/12:40am 18.0 17.9 17.9 99 0.1 NW 15 19 8 10 - - 0.0
22/12:30am 18.0 17.9 17.9 99 0.1 NNW 15 19 8 10 - - 0.0
22/12:20am 18.0 17.5 17.9 99 0.1 NNW 17 20 9 11 - - 0.0
22/12:10am 18.0 17.5 17.9 99 0.1 NNW 17 22 9 12 - - 0.0
22/12:00am 18.0 17.5 17.8 99 0.1 NNW 17 20 9 11 - - 0.0
 
Date/Time
EST
Temp
°C
App
Temp
°C
Dew
Point
°C
Rel
Hum
%
Delta-T
°C
Wind Press
QNH
hPa
Press
MSL
hPa
Rain since
9am
mm
Dir  Spd
km/h
Gust
km/h
Spd
kts
Gust
kts
21/11:50pm 18.0 17.1 17.8 99 0.1 NNW 19 22 10 12 - - 0.0
21/11:40pm 18.0 17.1 17.8 99 0.1 NNW 19 22 10 12 - - 0.0
21/11:30pm 18.0 16.5 17.8 99 0.1 NNW 22 28 12 15 - - 0.0
21/11:20pm 18.0 16.9 17.8 99 0.1 NNW 20 26 11 14 - - 0.0
21/11:10pm 18.1 17.2 17.8 98 0.2 N 19 24 10 13 - - 0.0
21/11:00pm 18.1 17.0 17.8 98 0.2 N 20 28 11 15 - - 0.0
21/10:50pm 18.1 17.2 17.8 98 0.2 N 19 20 10 11 - - 0.0
21/10:40pm 18.1 17.2 17.8 98 0.2 NNW 19 22 10 12 - - 0.0
21/10:30pm 18.0 17.1 17.7 98 0.2 N 19 26 10 14 - - 0.0
21/10:20pm 17.9 17.0 17.8 99 0.1 N 19 24 10 13 - - 0.0
21/10:10pm 17.9 17.0 17.7 99 0.1 N 19 26 10 14 - - 0.0
21/10:00pm 17.9 17.0 17.7 99 0.1 N 19 24 10 13 - - 0.0

Other formats

Comma delimited format used in spreadsheet applications
http://www.bom.gov.au/fwo/IDQ60801/IDQ60801.99123.axf

JavaScript Object Notation format (JSON) in row-major order
http://www.bom.gov.au/fwo/IDQ60801/IDQ60801.99123.json

Data quality

Most of these data are generated automatically and are frequently updated. Quality checks on data are not normally performed. It is possible for incorrect values to appear. Refer to information at About Latest Weather Observations and please check the disclaimer before using these data.